sensor_id;sensor_type;location;lat;lon;timestamp;P1;durP1;ratioP1;P2;durP2;ratioP2
24153;SDS011;12312;53.362;-1.518;2023-04-29T00:01:22;29.02;;;21.40;;
24153;SDS011;12312;53.362;-1.518;2023-04-29T00:04:06;27.65;;;20.33;;
24153;SDS011;12312;53.362;-1.518;2023-04-29T00:06:52;27.00;;;19.50;;
24153;SDS011;12312;53.362;-1.518;2023-04-29T00:09:36;27.45;;;18.50;;
24153;SDS011;12312;53.362;-1.518;2023-04-29T00:12:21;30.02;;;19.92;;
24153;SDS011;12312;53.362;-1.518;2023-04-29T00:15:05;29.88;;;21.52;;
24153;SDS011;12312;53.362;-1.518;2023-04-29T00:17:51;31.67;;;21.10;;
24153;SDS011;12312;53.362;-1.518;2023-04-29T00:20:35;31.58;;;20.90;;
24153;SDS011;12312;53.362;-1.518;2023-04-29T00:23:22;31.77;;;21.45;;
24153;SDS011;12312;53.362;-1.518;2023-04-29T00:26:06;31.63;;;21.00;;
24153;SDS011;12312;53.362;-1.518;2023-04-29T00:28:50;32.67;;;21.00;;
24153;SDS011;12312;53.362;-1.518;2023-04-29T00:31:34;31.88;;;22.58;;
24153;SDS011;12312;53.362;-1.518;2023-04-29T00:34:19;31.65;;;22.08;;
24153;SDS011;12312;53.362;-1.518;2023-04-29T00:37:03;32.70;;;22.60;;
24153;SDS011;12312;53.362;-1.518;2023-04-29T00:39:47;29.85;;;22.45;;
24153;SDS011;12312;53.362;-1.518;2023-04-29T00:42:31;30.63;;;22.15;;
24153;SDS011;12312;53.362;-1.518;2023-04-29T00:45:16;31.15;;;21.73;;
24153;SDS011;12312;53.362;-1.518;2023-04-29T00:48:00;28.63;;;20.27;;
24153;SDS011;12312;53.362;-1.518;2023-04-29T00:50:44;27.45;;;20.42;;
24153;SDS011;12312;53.362;-1.518;2023-04-29T00:53:29;30.38;;;21.52;;
24153;SDS011;12312;53.362;-1.518;2023-04-29T00:56:14;34.72;;;21.65;;
24153;SDS011;12312;53.362;-1.518;2023-04-29T00:58:58;32.58;;;21.13;;
24153;SDS011;12312;53.362;-1.518;2023-04-29T01:01:43;29.08;;;20.65;;
24153;SDS011;12312;53.362;-1.518;2023-04-29T01:04:28;30.15;;;22.20;;
24153;SDS011;12312;53.362;-1.518;2023-04-29T01:07:16;31.70;;;22.92;;
24153;SDS011;12312;53.362;-1.518;2023-04-29T01:10:09;32.88;;;20.92;;
24153;SDS011;12312;53.362;-1.518;2023-04-29T01:13:33;29.85;;;20.52;;
24153;SDS011;12312;53.362;-1.518;2023-04-29T01:22:03;32.55;;;22.17;;
24153;SDS011;12312;53.362;-1.518;2023-04-29T01:24:47;32.78;;;22.08;;
24153;SDS011;12312;53.362;-1.518;2023-04-29T01:27:33;34.95;;;22.25;;
24153;SDS011;12312;53.362;-1.518;2023-04-29T01:30:34;38.30;;;23.83;;
24153;SDS011;12312;53.362;-1.518;2023-04-29T01:33:36;32.15;;;21.08;;
24153;SDS011;12312;53.362;-1.518;2023-04-29T01:43:00;35.78;;;24.02;;
24153;SDS011;12312;53.362;-1.518;2023-04-29T01:45:47;37.47;;;23.20;;
24153;SDS011;12312;53.362;-1.518;2023-04-29T01:48:31;32.33;;;22.40;;
24153;SDS011;12312;53.362;-1.518;2023-04-29T01:51:16;36.17;;;23.23;;
24153;SDS011;12312;53.362;-1.518;2023-04-29T01:54:00;42.20;;;23.52;;
24153;SDS011;12312;53.362;-1.518;2023-04-29T01:56:44;36.55;;;22.73;;
24153;SDS011;12312;53.362;-1.518;2023-04-29T01:59:29;38.50;;;22.58;;
24153;SDS011;12312;53.362;-1.518;2023-04-29T02:02:13;37.78;;;23.60;;
24153;SDS011;12312;53.362;-1.518;2023-04-29T02:04:57;42.45;;;23.15;;
24153;SDS011;12312;53.362;-1.518;2023-04-29T02:07:41;37.92;;;22.15;;
24153;SDS011;12312;53.362;-1.518;2023-04-29T02:13:12;39.58;;;22.70;;
24153;SDS011;12312;53.362;-1.518;2023-04-29T02:15:56;38.97;;;22.48;;
24153;SDS011;12312;53.362;-1.518;2023-04-29T02:18:40;37.30;;;21.90;;
24153;SDS011;12312;53.362;-1.518;2023-04-29T02:21:25;38.38;;;22.08;;
24153;SDS011;12312;53.362;-1.518;2023-04-29T02:24:10;37.92;;;21.77;;
24153;SDS011;12312;53.362;-1.518;2023-04-29T02:26:54;39.97;;;21.60;;
24153;SDS011;12312;53.362;-1.518;2023-04-29T02:29:38;35.83;;;20.38;;
24153;SDS011;12312;53.362;-1.518;2023-04-29T02:32:22;32.17;;;19.73;;
24153;SDS011;12312;53.362;-1.518;2023-04-29T02:35:06;35.85;;;18.65;;
24153;SDS011;12312;53.362;-1.518;2023-04-29T02:37:51;37.00;;;18.83;;
24153;SDS011;12312;53.362;-1.518;2023-04-29T02:40:41;30.15;;;18.02;;
24153;SDS011;12312;53.362;-1.518;2023-04-29T02:43:27;31.80;;;17.00;;
24153;SDS011;12312;53.362;-1.518;2023-04-29T02:46:13;33.33;;;18.40;;
24153;SDS011;12312;53.362;-1.518;2023-04-29T02:48:59;33.83;;;18.52;;
24153;SDS011;12312;53.362;-1.518;2023-04-29T02:51:44;32.33;;;17.63;;
24153;SDS011;12312;53.362;-1.518;2023-04-29T02:54:28;32.53;;;18.48;;
24153;SDS011;12312;53.362;-1.518;2023-04-29T02:57:13;33.08;;;18.02;;
24153;SDS011;12312;53.362;-1.518;2023-04-29T02:59:57;32.08;;;18.05;;
24153;SDS011;12312;53.362;-1.518;2023-04-29T03:02:42;26.83;;;16.50;;
24153;SDS011;12312;53.362;-1.518;2023-04-29T03:05:26;23.83;;;14.85;;
24153;SDS011;12312;53.362;-1.518;2023-04-29T03:08:10;28.67;;;16.10;;
24153;SDS011;12312;53.362;-1.518;2023-04-29T03:10:54;27.30;;;15.20;;
24153;SDS011;12312;53.362;-1.518;2023-04-29T03:13:38;25.67;;;14.07;;
24153;SDS011;12312;53.362;-1.518;2023-04-29T03:16:22;24.05;;;13.73;;
24153;SDS011;12312;53.362;-1.518;2023-04-29T03:19:07;20.73;;;12.57;;
24153;SDS011;12312;53.362;-1.518;2023-04-29T03:21:51;22.80;;;12.32;;
24153;SDS011;12312;53.362;-1.518;2023-04-29T03:24:35;22.45;;;12.52;;
24153;SDS011;12312;53.362;-1.518;2023-04-29T03:27:19;24.25;;;13.68;;
24153;SDS011;12312;53.362;-1.518;2023-04-29T03:30:04;21.38;;;13.18;;
24153;SDS011;12312;53.362;-1.518;2023-04-29T03:32:49;25.52;;;14.32;;
24153;SDS011;12312;53.362;-1.518;2023-04-29T03:35:33;24.38;;;13.80;;
24153;SDS011;12312;53.362;-1.518;2023-04-29T03:38:17;21.90;;;13.73;;
24153;SDS011;12312;53.362;-1.518;2023-04-29T03:41:01;29.35;;;15.52;;
24153;SDS011;12312;53.362;-1.518;2023-04-29T03:43:46;26.42;;;15.07;;
24153;SDS011;12312;53.362;-1.518;2023-04-29T03:46:30;25.83;;;15.85;;
24153;SDS011;12312;53.362;-1.518;2023-04-29T03:49:14;27.98;;;15.65;;
24153;SDS011;12312;53.362;-1.518;2023-04-29T03:51:59;27.92;;;15.65;;
24153;SDS011;12312;53.362;-1.518;2023-04-29T03:54:43;29.58;;;15.73;;
24153;SDS011;12312;53.362;-1.518;2023-04-29T03:57:27;24.60;;;14.73;;
24153;SDS011;12312;53.362;-1.518;2023-04-29T04:00:11;25.95;;;15.85;;
24153;SDS011;12312;53.362;-1.518;2023-04-29T04:02:56;25.58;;;15.05;;
24153;SDS011;12312;53.362;-1.518;2023-04-29T04:05:41;28.42;;;16.83;;
24153;SDS011;12312;53.362;-1.518;2023-04-29T04:08:25;31.45;;;16.90;;
24153;SDS011;12312;53.362;-1.518;2023-04-29T04:11:10;31.50;;;16.80;;
24153;SDS011;12312;53.362;-1.518;2023-04-29T04:13:55;30.45;;;16.38;;
24153;SDS011;12312;53.362;-1.518;2023-04-29T04:16:39;30.02;;;16.48;;
24153;SDS011;12312;53.362;-1.518;2023-04-29T04:19:23;28.38;;;16.30;;
24153;SDS011;12312;53.362;-1.518;2023-04-29T04:22:07;28.00;;;15.25;;
24153;SDS011;12312;53.362;-1.518;2023-04-29T04:24:53;27.55;;;16.27;;
24153;SDS011;12312;53.362;-1.518;2023-04-29T04:27:38;26.00;;;15.38;;
24153;SDS011;12312;53.362;-1.518;2023-04-29T04:30:22;29.55;;;15.52;;
24153;SDS011;12312;53.362;-1.518;2023-04-29T04:33:06;28.35;;;16.45;;
24153;SDS011;12312;53.362;-1.518;2023-04-29T04:35:51;28.70;;;15.65;;
24153;SDS011;12312;53.362;-1.518;2023-04-29T04:38:35;23.30;;;13.43;;
24153;SDS011;12312;53.362;-1.518;2023-04-29T04:41:20;26.23;;;14.10;;
24153;SDS011;12312;53.362;-1.518;2023-04-29T04:44:04;25.80;;;14.07;;
24153;SDS011;12312;53.362;-1.518;2023-04-29T04:46:50;27.17;;;14.13;;
24153;SDS011;12312;53.362;-1.518;2023-04-29T04:49:35;25.20;;;13.27;;
24153;SDS011;12312;53.362;-1.518;2023-04-29T04:52:19;23.15;;;12.85;;
24153;SDS011;12312;53.362;-1.518;2023-04-29T04:55:04;24.67;;;13.38;;
24153;SDS011;12312;53.362;-1.518;2023-04-29T04:57:49;21.77;;;12.75;;
24153;SDS011;12312;53.362;-1.518;2023-04-29T05:00:33;21.85;;;12.55;;
24153;SDS011;12312;53.362;-1.518;2023-04-29T05:03:18;18.92;;;12.35;;
24153;SDS011;12312;53.362;-1.518;2023-04-29T05:06:02;20.48;;;12.05;;
24153;SDS011;12312;53.362;-1.518;2023-04-29T05:08:47;20.48;;;12.23;;
24153;SDS011;12312;53.362;-1.518;2023-04-29T05:11:31;24.25;;;13.05;;
24153;SDS011;12312;53.362;-1.518;2023-04-29T05:14:15;22.02;;;13.00;;
24153;SDS011;12312;53.362;-1.518;2023-04-29T05:16:59;25.52;;;14.15;;
24153;SDS011;12312;53.362;-1.518;2023-04-29T05:19:43;23.45;;;13.93;;
24153;SDS011;12312;53.362;-1.518;2023-04-29T05:22:27;24.48;;;13.60;;
24153;SDS011;12312;53.362;-1.518;2023-04-29T05:25:11;26.48;;;13.90;;
24153;SDS011;12312;53.362;-1.518;2023-04-29T05:27:55;23.45;;;13.43;;
24153;SDS011;12312;53.362;-1.518;2023-04-29T05:30:40;26.25;;;13.13;;
24153;SDS011;12312;53.362;-1.518;2023-04-29T05:33:24;22.52;;;11.90;;
24153;SDS011;12312;53.362;-1.518;2023-04-29T05:36:08;22.27;;;12.57;;
24153;SDS011;12312;53.362;-1.518;2023-04-29T05:38:52;21.58;;;12.82;;
24153;SDS011;12312;53.362;-1.518;2023-04-29T05:41:36;24.25;;;13.80;;
24153;SDS011;12312;53.362;-1.518;2023-04-29T05:44:20;26.67;;;14.02;;
24153;SDS011;12312;53.362;-1.518;2023-04-29T05:47:05;25.73;;;14.55;;
24153;SDS011;12312;53.362;-1.518;2023-04-29T05:49:49;28.45;;;16.15;;
24153;SDS011;12312;53.362;-1.518;2023-04-29T05:52:33;29.55;;;15.82;;
24153;SDS011;12312;53.362;-1.518;2023-04-29T05:55:17;28.05;;;15.52;;
24153;SDS011;12312;53.362;-1.518;2023-04-29T05:58:01;26.77;;;14.57;;
24153;SDS011;12312;53.362;-1.518;2023-04-29T06:00:45;28.05;;;14.63;;
24153;SDS011;12312;53.362;-1.518;2023-04-29T06:03:31;27.83;;;14.73;;
24153;SDS011;12312;53.362;-1.518;2023-04-29T06:06:15;27.58;;;14.75;;
24153;SDS011;12312;53.362;-1.518;2023-04-29T06:09:00;24.88;;;14.02;;
24153;SDS011;12312;53.362;-1.518;2023-04-29T06:11:45;27.85;;;15.43;;
24153;SDS011;12312;53.362;-1.518;2023-04-29T06:14:32;24.10;;;13.23;;
24153;SDS011;12312;53.362;-1.518;2023-04-29T06:17:16;24.08;;;13.63;;
24153;SDS011;12312;53.362;-1.518;2023-04-29T06:20:00;21.67;;;12.57;;
24153;SDS011;12312;53.362;-1.518;2023-04-29T06:22:44;20.23;;;12.02;;
24153;SDS011;12312;53.362;-1.518;2023-04-29T06:25:28;19.20;;;12.23;;
24153;SDS011;12312;53.362;-1.518;2023-04-29T06:28:12;21.00;;;12.02;;
24153;SDS011;12312;53.362;-1.518;2023-04-29T06:30:56;20.77;;;12.35;;
24153;SDS011;12312;53.362;-1.518;2023-04-29T06:33:41;18.05;;;11.13;;
24153;SDS011;12312;53.362;-1.518;2023-04-29T06:36:25;17.83;;;10.95;;
24153;SDS011;12312;53.362;-1.518;2023-04-29T06:39:09;17.60;;;11.05;;
24153;SDS011;12312;53.362;-1.518;2023-04-29T06:41:53;16.77;;;10.77;;
24153;SDS011;12312;53.362;-1.518;2023-04-29T06:44:37;17.23;;;10.27;;
24153;SDS011;12312;53.362;-1.518;2023-04-29T06:47:21;15.77;;;8.70;;
24153;SDS011;12312;53.362;-1.518;2023-04-29T06:50:05;13.05;;;8.55;;
24153;SDS011;12312;53.362;-1.518;2023-04-29T06:52:50;15.40;;;8.77;;
24153;SDS011;12312;53.362;-1.518;2023-04-29T06:55:34;10.13;;;6.40;;
24153;SDS011;12312;53.362;-1.518;2023-04-29T06:58:18;10.10;;;6.20;;
24153;SDS011;12312;53.362;-1.518;2023-04-29T07:01:03;10.90;;;6.20;;
24153;SDS011;12312;53.362;-1.518;2023-04-29T07:03:48;20.63;;;11.45;;
24153;SDS011;12312;53.362;-1.518;2023-04-29T07:06:32;17.67;;;11.18;;
24153;SDS011;12312;53.362;-1.518;2023-04-29T07:09:16;15.45;;;10.13;;
24153;SDS011;12312;53.362;-1.518;2023-04-29T07:12:00;13.80;;;9.20;;
24153;SDS011;12312;53.362;-1.518;2023-04-29T07:14:45;10.82;;;7.50;;
24153;SDS011;12312;53.362;-1.518;2023-04-29T07:17:29;12.95;;;7.90;;
24153;SDS011;12312;53.362;-1.518;2023-04-29T07:20:14;13.52;;;8.65;;
24153;SDS011;12312;53.362;-1.518;2023-04-29T07:22:58;14.10;;;9.05;;
24153;SDS011;12312;53.362;-1.518;2023-04-29T07:25:42;15.38;;;7.95;;
24153;SDS011;12312;53.362;-1.518;2023-04-29T07:28:26;12.45;;;7.80;;
24153;SDS011;12312;53.362;-1.518;2023-04-29T07:31:10;11.80;;;7.20;;
24153;SDS011;12312;53.362;-1.518;2023-04-29T07:33:54;16.50;;;9.45;;
24153;SDS011;12312;53.362;-1.518;2023-04-29T07:36:39;14.50;;;9.07;;
24153;SDS011;12312;53.362;-1.518;2023-04-29T07:39:23;13.73;;;9.30;;
24153;SDS011;12312;53.362;-1.518;2023-04-29T07:42:07;14.50;;;8.82;;
24153;SDS011;12312;53.362;-1.518;2023-04-29T07:44:51;13.68;;;8.10;;
24153;SDS011;12312;53.362;-1.518;2023-04-29T07:47:36;14.23;;;8.35;;
24153;SDS011;12312;53.362;-1.518;2023-04-29T07:50:20;8.82;;;5.47;;
24153;SDS011;12312;53.362;-1.518;2023-04-29T07:53:05;6.50;;;4.57;;
24153;SDS011;12312;53.362;-1.518;2023-04-29T07:55:49;7.38;;;4.82;;
24153;SDS011;12312;53.362;-1.518;2023-04-29T07:58:33;13.07;;;7.40;;
24153;SDS011;12312;53.362;-1.518;2023-04-29T08:01:17;12.43;;;8.23;;
24153;SDS011;12312;53.362;-1.518;2023-04-29T08:04:01;9.90;;;6.90;;
24153;SDS011;12312;53.362;-1.518;2023-04-29T08:06:45;13.10;;;6.82;;
24153;SDS011;12312;53.362;-1.518;2023-04-29T08:09:29;7.78;;;5.43;;
24153;SDS011;12312;53.362;-1.518;2023-04-29T08:12:13;3.67;;;2.42;;
24153;SDS011;12312;53.362;-1.518;2023-04-29T08:14:57;6.32;;;3.78;;
24153;SDS011;12312;53.362;-1.518;2023-04-29T08:17:41;5.07;;;3.20;;
24153;SDS011;12312;53.362;-1.518;2023-04-29T08:20:25;3.63;;;2.60;;
24153;SDS011;12312;53.362;-1.518;2023-04-29T08:23:09;4.60;;;2.63;;
24153;SDS011;12312;53.362;-1.518;2023-04-29T08:25:54;3.55;;;2.60;;
24153;SDS011;12312;53.362;-1.518;2023-04-29T08:28:38;2.95;;;2.00;;
24153;SDS011;12312;53.362;-1.518;2023-04-29T08:31:23;3.10;;;2.22;;
24153;SDS011;12312;53.362;-1.518;2023-04-29T08:34:08;4.53;;;3.63;;
24153;SDS011;12312;53.362;-1.518;2023-04-29T08:36:52;2.80;;;2.22;;
24153;SDS011;12312;53.362;-1.518;2023-04-29T08:39:36;2.85;;;2.03;;
24153;SDS011;12312;53.362;-1.518;2023-04-29T08:42:30;2.65;;;1.60;;
24153;SDS011;12312;53.362;-1.518;2023-04-29T08:45:17;3.42;;;2.78;;
24153;SDS011;12312;53.362;-1.518;2023-04-29T08:48:04;4.78;;;3.65;;
24153;SDS011;12312;53.362;-1.518;2023-04-29T08:50:49;6.78;;;4.05;;
24153;SDS011;12312;53.362;-1.518;2023-04-29T08:53:33;6.80;;;4.50;;
24153;SDS011;12312;53.362;-1.518;2023-04-29T08:56:18;7.30;;;4.85;;
24153;SDS011;12312;53.362;-1.518;2023-04-29T08:59:04;7.25;;;4.80;;
24153;SDS011;12312;53.362;-1.518;2023-04-29T09:01:51;10.18;;;5.40;;
24153;SDS011;12312;53.362;-1.518;2023-04-29T09:04:37;7.47;;;4.95;;
24153;SDS011;12312;53.362;-1.518;2023-04-29T09:10:07;14.07;;;6.10;;
24153;SDS011;12312;53.362;-1.518;2023-04-29T09:12:54;10.13;;;6.45;;
24153;SDS011;12312;53.362;-1.518;2023-04-29T09:15:40;10.20;;;6.60;;
24153;SDS011;12312;53.362;-1.518;2023-04-29T09:21:28;10.40;;;6.07;;
24153;SDS011;12312;53.362;-1.518;2023-04-29T09:24:15;10.30;;;6.47;;
24153;SDS011;12312;53.362;-1.518;2023-04-29T09:27:08;9.38;;;6.50;;
24153;SDS011;12312;53.362;-1.518;2023-04-29T09:29:59;10.88;;;7.18;;
24153;SDS011;12312;53.362;-1.518;2023-04-29T09:32:44;10.18;;;6.35;;
24153;SDS011;12312;53.362;-1.518;2023-04-29T09:35:29;9.50;;;6.65;;
24153;SDS011;12312;53.362;-1.518;2023-04-29T09:38:14;11.70;;;6.97;;
24153;SDS011;12312;53.362;-1.518;2023-04-29T09:41:08;10.25;;;6.30;;
24153;SDS011;12312;53.362;-1.518;2023-04-29T09:44:01;9.98;;;6.20;;
24153;SDS011;12312;53.362;-1.518;2023-04-29T09:49:47;8.10;;;5.57;;
24153;SDS011;12312;53.362;-1.518;2023-04-29T09:52:38;7.32;;;5.07;;
24153;SDS011;12312;53.362;-1.518;2023-04-29T09:55:25;6.47;;;4.65;;
24153;SDS011;12312;53.362;-1.518;2023-04-29T09:58:28;6.22;;;4.38;;
24153;SDS011;12312;53.362;-1.518;2023-04-29T10:01:19;8.60;;;4.88;;
24153;SDS011;12312;53.362;-1.518;2023-04-29T10:04:05;8.80;;;5.05;;
24153;SDS011;12312;53.362;-1.518;2023-04-29T10:06:54;6.13;;;4.60;;
24153;SDS011;12312;53.362;-1.518;2023-04-29T10:09:39;8.75;;;4.57;;
24153;SDS011;12312;53.362;-1.518;2023-04-29T10:12:23;7.90;;;5.15;;
24153;SDS011;12312;53.362;-1.518;2023-04-29T10:21:20;11.13;;;8.30;;
24153;SDS011;12312;53.362;-1.518;2023-04-29T10:24:09;15.57;;;8.85;;
24153;SDS011;12312;53.362;-1.518;2023-04-29T10:26:56;14.10;;;8.82;;
24153;SDS011;12312;53.362;-1.518;2023-04-29T10:29:55;14.68;;;8.57;;
24153;SDS011;12312;53.362;-1.518;2023-04-29T10:32:41;11.88;;;8.75;;
24153;SDS011;12312;53.362;-1.518;2023-04-29T10:35:29;12.57;;;9.10;;
24153;SDS011;12312;53.362;-1.518;2023-04-29T10:38:20;8.93;;;6.32;;
24153;SDS011;12312;53.362;-1.518;2023-04-29T10:41:19;10.07;;;6.95;;
24153;SDS011;12312;53.362;-1.518;2023-04-29T10:44:08;9.80;;;5.95;;
24153;SDS011;12312;53.362;-1.518;2023-04-29T10:50:03;9.85;;;6.32;;
24153;SDS011;12312;53.362;-1.518;2023-04-29T10:52:51;9.85;;;6.07;;
24153;SDS011;12312;53.362;-1.518;2023-04-29T10:55:37;7.40;;;5.28;;
24153;SDS011;12312;53.362;-1.518;2023-04-29T11:01:39;7.30;;;4.80;;
24153;SDS011;12312;53.362;-1.518;2023-04-29T11:04:27;8.57;;;5.60;;
24153;SDS011;12312;53.362;-1.518;2023-04-29T11:07:25;7.72;;;5.50;;
24153;SDS011;12312;53.362;-1.518;2023-04-29T11:10:11;7.18;;;4.80;;
24153;SDS011;12312;53.362;-1.518;2023-04-29T11:16:10;8.43;;;4.38;;
24153;SDS011;12312;53.362;-1.518;2023-04-29T11:19:07;6.93;;;4.45;;
24153;SDS011;12312;53.362;-1.518;2023-04-29T11:22:02;5.43;;;4.30;;
24153;SDS011;12312;53.362;-1.518;2023-04-29T11:24:53;6.47;;;4.07;;
24153;SDS011;12312;53.362;-1.518;2023-04-29T11:28:03;6.30;;;4.28;;
24153;SDS011;12312;53.362;-1.518;2023-04-29T11:30:47;48.75;;;10.25;;
24153;SDS011;12312;53.362;-1.518;2023-04-29T11:33:35;27.15;;;7.53;;
24153;SDS011;12312;53.362;-1.518;2023-04-29T11:36:19;7.85;;;3.90;;
24153;SDS011;12312;53.362;-1.518;2023-04-29T11:39:04;5.57;;;3.30;;
24153;SDS011;12312;53.362;-1.518;2023-04-29T11:41:48;6.57;;;3.30;;
24153;SDS011;12312;53.362;-1.518;2023-04-29T11:44:33;4.45;;;2.97;;
24153;SDS011;12312;53.362;-1.518;2023-04-29T11:47:18;4.43;;;3.00;;
24153;SDS011;12312;53.362;-1.518;2023-04-29T11:50:05;6.10;;;2.80;;
24153;SDS011;12312;53.362;-1.518;2023-04-29T11:52:51;5.50;;;3.97;;
24153;SDS011;12312;53.362;-1.518;2023-04-29T11:55:35;5.28;;;3.55;;
24153;SDS011;12312;53.362;-1.518;2023-04-29T11:58:20;6.70;;;4.30;;
24153;SDS011;12312;53.362;-1.518;2023-04-29T12:01:05;8.90;;;4.90;;
24153;SDS011;12312;53.362;-1.518;2023-04-29T12:03:49;152.90;;;30.85;;
24153;SDS011;12312;53.362;-1.518;2023-04-29T12:06:34;8.52;;;4.90;;
24153;SDS011;12312;53.362;-1.518;2023-04-29T12:09:18;6.95;;;5.00;;
24153;SDS011;12312;53.362;-1.518;2023-04-29T12:12:03;8.07;;;5.00;;
24153;SDS011;12312;53.362;-1.518;2023-04-29T12:14:47;7.82;;;5.20;;
24153;SDS011;12312;53.362;-1.518;2023-04-29T12:17:32;6.25;;;4.57;;
24153;SDS011;12312;53.362;-1.518;2023-04-29T12:20:17;7.50;;;4.90;;
24153;SDS011;12312;53.362;-1.518;2023-04-29T12:23:11;7.05;;;5.18;;
24153;SDS011;12312;53.362;-1.518;2023-04-29T12:25:56;7.55;;;5.53;;
24153;SDS011;12312;53.362;-1.518;2023-04-29T12:28:42;7.82;;;5.55;;
24153;SDS011;12312;53.362;-1.518;2023-04-29T12:31:32;8.93;;;5.93;;
24153;SDS011;12312;53.362;-1.518;2023-04-29T12:34:23;9.45;;;6.82;;
24153;SDS011;12312;53.362;-1.518;2023-04-29T12:37:08;8.77;;;6.55;;
24153;SDS011;12312;53.362;-1.518;2023-04-29T12:39:56;13.00;;;7.75;;
24153;SDS011;12312;53.362;-1.518;2023-04-29T12:42:40;10.57;;;6.70;;
24153;SDS011;12312;53.362;-1.518;2023-04-29T12:45:31;9.38;;;6.72;;
24153;SDS011;12312;53.362;-1.518;2023-04-29T12:48:17;9.98;;;7.13;;
24153;SDS011;12312;53.362;-1.518;2023-04-29T12:51:01;11.55;;;7.95;;
24153;SDS011;12312;53.362;-1.518;2023-04-29T12:53:45;15.93;;;8.70;;
24153;SDS011;12312;53.362;-1.518;2023-04-29T12:56:29;11.90;;;9.38;;
24153;SDS011;12312;53.362;-1.518;2023-04-29T12:59:15;13.38;;;8.70;;
24153;SDS011;12312;53.362;-1.518;2023-04-29T13:02:00;11.68;;;8.10;;
24153;SDS011;12312;53.362;-1.518;2023-04-29T13:04:44;10.13;;;7.22;;
24153;SDS011;12312;53.362;-1.518;2023-04-29T13:07:28;10.27;;;7.15;;
24153;SDS011;12312;53.362;-1.518;2023-04-29T13:10:12;11.38;;;8.18;;
24153;SDS011;12312;53.362;-1.518;2023-04-29T13:12:56;11.50;;;7.72;;
24153;SDS011;12312;53.362;-1.518;2023-04-29T13:15:40;9.90;;;8.25;;
24153;SDS011;12312;53.362;-1.518;2023-04-29T13:18:25;10.65;;;8.40;;
24153;SDS011;12312;53.362;-1.518;2023-04-29T13:21:09;10.68;;;8.32;;
24153;SDS011;12312;53.362;-1.518;2023-04-29T13:23:54;12.25;;;8.07;;
24153;SDS011;12312;53.362;-1.518;2023-04-29T13:26:38;12.98;;;8.15;;
24153;SDS011;12312;53.362;-1.518;2023-04-29T13:29:22;12.73;;;9.52;;
24153;SDS011;12312;53.362;-1.518;2023-04-29T13:32:10;13.25;;;9.32;;
24153;SDS011;12312;53.362;-1.518;2023-04-29T13:34:54;13.52;;;11.18;;
24153;SDS011;12312;53.362;-1.518;2023-04-29T13:37:39;15.82;;;12.40;;
24153;SDS011;12312;53.362;-1.518;2023-04-29T13:40:23;16.48;;;13.13;;
24153;SDS011;12312;53.362;-1.518;2023-04-29T13:43:07;18.63;;;13.82;;
24153;SDS011;12312;53.362;-1.518;2023-04-29T13:45:51;21.58;;;15.43;;
24153;SDS011;12312;53.362;-1.518;2023-04-29T13:48:36;21.00;;;16.20;;
24153;SDS011;12312;53.362;-1.518;2023-04-29T13:51:21;21.88;;;17.00;;
24153;SDS011;12312;53.362;-1.518;2023-04-29T13:54:05;21.33;;;16.60;;
24153;SDS011;12312;53.362;-1.518;2023-04-29T13:56:49;20.50;;;16.00;;
24153;SDS011;12312;53.362;-1.518;2023-04-29T13:59:33;20.55;;;15.50;;
24153;SDS011;12312;53.362;-1.518;2023-04-29T14:02:20;19.10;;;13.45;;
24153;SDS011;12312;53.362;-1.518;2023-04-29T14:05:04;17.48;;;14.32;;
24153;SDS011;12312;53.362;-1.518;2023-04-29T14:07:50;19.33;;;14.77;;
24153;SDS011;12312;53.362;-1.518;2023-04-29T14:10:35;16.05;;;12.85;;
24153;SDS011;12312;53.362;-1.518;2023-04-29T14:13:19;18.15;;;12.90;;
24153;SDS011;12312;53.362;-1.518;2023-04-29T14:16:03;17.15;;;12.68;;
24153;SDS011;12312;53.362;-1.518;2023-04-29T14:18:49;16.60;;;12.50;;
24153;SDS011;12312;53.362;-1.518;2023-04-29T14:21:33;18.35;;;13.27;;
24153;SDS011;12312;53.362;-1.518;2023-04-29T14:24:17;19.60;;;14.75;;
24153;SDS011;12312;53.362;-1.518;2023-04-29T14:27:01;23.48;;;16.95;;
24153;SDS011;12312;53.362;-1.518;2023-04-29T14:29:46;22.38;;;16.92;;
24153;SDS011;12312;53.362;-1.518;2023-04-29T14:32:30;22.33;;;13.77;;
24153;SDS011;12312;53.362;-1.518;2023-04-29T14:35:14;20.10;;;14.52;;
24153;SDS011;12312;53.362;-1.518;2023-04-29T14:38:00;21.23;;;14.60;;
24153;SDS011;12312;53.362;-1.518;2023-04-29T14:40:44;20.88;;;14.68;;
24153;SDS011;12312;53.362;-1.518;2023-04-29T14:43:28;26.08;;;17.77;;
24153;SDS011;12312;53.362;-1.518;2023-04-29T14:46:12;26.00;;;19.02;;
24153;SDS011;12312;53.362;-1.518;2023-04-29T14:48:57;40.03;;;21.35;;
24153;SDS011;12312;53.362;-1.518;2023-04-29T14:51:41;36.42;;;24.33;;
24153;SDS011;12312;53.362;-1.518;2023-04-29T14:54:25;39.45;;;24.77;;
24153;SDS011;12312;53.362;-1.518;2023-04-29T14:57:10;38.60;;;25.73;;
24153;SDS011;12312;53.362;-1.518;2023-04-29T14:59:55;42.75;;;27.60;;
24153;SDS011;12312;53.362;-1.518;2023-04-29T15:02:39;40.53;;;26.50;;
24153;SDS011;12312;53.362;-1.518;2023-04-29T15:05:25;37.53;;;25.63;;
24153;SDS011;12312;53.362;-1.518;2023-04-29T15:08:10;38.25;;;26.17;;
24153;SDS011;12312;53.362;-1.518;2023-04-29T15:10:54;37.78;;;25.52;;
24153;SDS011;12312;53.362;-1.518;2023-04-29T15:13:38;30.08;;;21.05;;
24153;SDS011;12312;53.362;-1.518;2023-04-29T15:16:23;22.98;;;16.67;;
24153;SDS011;12312;53.362;-1.518;2023-04-29T15:19:07;21.65;;;16.42;;
24153;SDS011;12312;53.362;-1.518;2023-04-29T15:21:51;25.25;;;18.63;;
24153;SDS011;12312;53.362;-1.518;2023-04-29T15:24:36;23.42;;;18.13;;
24153;SDS011;12312;53.362;-1.518;2023-04-29T15:27:20;21.90;;;16.02;;
24153;SDS011;12312;53.362;-1.518;2023-04-29T15:30:04;26.85;;;19.73;;
24153;SDS011;12312;53.362;-1.518;2023-04-29T15:32:49;23.70;;;16.92;;
24153;SDS011;12312;53.362;-1.518;2023-04-29T15:35:33;26.10;;;17.33;;
24153;SDS011;12312;53.362;-1.518;2023-04-29T15:38:18;22.83;;;18.15;;
24153;SDS011;12312;53.362;-1.518;2023-04-29T15:41:02;21.13;;;17.85;;
24153;SDS011;12312;53.362;-1.518;2023-04-29T15:43:46;23.63;;;18.55;;
24153;SDS011;12312;53.362;-1.518;2023-04-29T15:46:30;22.15;;;17.77;;
24153;SDS011;12312;53.362;-1.518;2023-04-29T15:49:14;24.38;;;18.80;;
24153;SDS011;12312;53.362;-1.518;2023-04-29T15:51:58;24.75;;;18.83;;
24153;SDS011;12312;53.362;-1.518;2023-04-29T15:54:43;22.60;;;16.95;;
24153;SDS011;12312;53.362;-1.518;2023-04-29T15:57:27;23.30;;;17.10;;
24153;SDS011;12312;53.362;-1.518;2023-04-29T16:00:11;24.55;;;18.48;;
24153;SDS011;12312;53.362;-1.518;2023-04-29T16:02:56;24.67;;;18.25;;
24153;SDS011;12312;53.362;-1.518;2023-04-29T16:05:41;30.73;;;20.95;;
24153;SDS011;12312;53.362;-1.518;2023-04-29T16:08:25;26.15;;;20.27;;
24153;SDS011;12312;53.362;-1.518;2023-04-29T16:11:10;30.30;;;21.80;;
24153;SDS011;12312;53.362;-1.518;2023-04-29T16:13:56;38.22;;;25.20;;
24153;SDS011;12312;53.362;-1.518;2023-04-29T16:16:40;53.20;;;31.58;;
24153;SDS011;12312;53.362;-1.518;2023-04-29T16:19:24;31.88;;;23.20;;
24153;SDS011;12312;53.362;-1.518;2023-04-29T16:22:08;37.00;;;25.17;;
24153;SDS011;12312;53.362;-1.518;2023-04-29T16:24:54;34.10;;;21.90;;
24153;SDS011;12312;53.362;-1.518;2023-04-29T16:27:38;27.95;;;20.80;;
24153;SDS011;12312;53.362;-1.518;2023-04-29T16:30:22;27.95;;;20.40;;
24153;SDS011;12312;53.362;-1.518;2023-04-29T16:33:07;27.88;;;20.52;;
24153;SDS011;12312;53.362;-1.518;2023-04-29T16:35:50;31.80;;;22.95;;
24153;SDS011;12312;53.362;-1.518;2023-04-29T16:38:36;32.50;;;22.30;;
24153;SDS011;12312;53.362;-1.518;2023-04-29T16:41:20;31.63;;;22.40;;